BEG weather

Belgrade Nikola Tesla Airport
Belgrade, Beograd (city), Serbia

Public forecast

Using degrees Celsius for public forecast. Weather courtesy of forecast.io.

Current aviation weather report (METAR) for Belgrade Nikola Tesla Airport

Retrieved 2020/03/30 07:30 UTC (0 seconds ago):

LYBE 300730Z 32015KT CAVOK 08/02 Q1017 NOSIG

Aviation forecast (TAF) for Belgrade Nikola Tesla Airport

Retrieved 2020/03/30 06:22 UTC (1 hour ago):

TAF LYBE 300500Z 3006/3106 30009KT 9999 SCT033 TX12/3012Z TN03/3104Z TEMPO 3008/3018 33020KT